sensor_id;sensor_type;location;lat;lon;timestamp;P1;durP1;ratioP1;P2;durP2;ratioP2
6751;SDS011;3413;47.680;9.166;2023-05-29T00:00:02;5.97;;;2.90;;
6751;SDS011;3413;47.680;9.166;2023-05-29T00:05:11;6.10;;;2.20;;
6751;SDS011;3413;47.680;9.166;2023-05-29T00:10:14;9.93;;;2.93;;
6751;SDS011;3413;47.680;9.166;2023-05-29T00:15:16;7.63;;;2.47;;
6751;SDS011;3413;47.680;9.166;2023-05-29T00:20:18;8.77;;;2.83;;
6751;SDS011;3413;47.680;9.166;2023-05-29T00:25:20;13.83;;;3.53;;
6751;SDS011;3413;47.680;9.166;2023-05-29T00:30:22;7.30;;;3.10;;
6751;SDS011;3413;47.680;9.166;2023-05-29T00:35:24;5.70;;;2.50;;
6751;SDS011;3413;47.680;9.166;2023-05-29T00:40:26;8.90;;;2.50;;
6751;SDS011;3413;47.680;9.166;2023-05-29T00:45:28;7.40;;;2.60;;
6751;SDS011;3413;47.680;9.166;2023-05-29T00:50:31;5.90;;;2.80;;
6751;SDS011;3413;47.680;9.166;2023-05-29T00:55:33;8.07;;;2.93;;
6751;SDS011;3413;47.680;9.166;2023-05-29T01:00:36;7.53;;;2.80;;
6751;SDS011;3413;47.680;9.166;2023-05-29T01:05:40;7.57;;;2.83;;
6751;SDS011;3413;47.680;9.166;2023-05-29T01:10:42;8.10;;;3.60;;
6751;SDS011;3413;47.680;9.166;2023-05-29T01:31:44;7.20;;;2.70;;
6751;SDS011;3413;47.680;9.166;2023-05-29T01:36:49;9.20;;;3.07;;
6751;SDS011;3413;47.680;9.166;2023-05-29T01:41:51;8.53;;;2.83;;
6751;SDS011;3413;47.680;9.166;2023-05-29T01:46:55;5.30;;;2.57;;
6751;SDS011;3413;47.680;9.166;2023-05-29T01:51:58;8.33;;;2.60;;
6751;SDS011;3413;47.680;9.166;2023-05-29T01:57:00;4.63;;;2.40;;
6751;SDS011;3413;47.680;9.166;2023-05-29T02:02:05;6.93;;;2.93;;
6751;SDS011;3413;47.680;9.166;2023-05-29T02:07:10;9.90;;;3.00;;
6751;SDS011;3413;47.680;9.166;2023-05-29T02:12:13;6.43;;;2.53;;
6751;SDS011;3413;47.680;9.166;2023-05-29T02:17:15;5.43;;;2.27;;
6751;SDS011;3413;47.680;9.166;2023-05-29T02:22:17;10.30;;;2.80;;
6751;SDS011;3413;47.680;9.166;2023-05-29T02:27:19;7.43;;;3.07;;
6751;SDS011;3413;47.680;9.166;2023-05-29T02:32:22;8.10;;;2.60;;
6751;SDS011;3413;47.680;9.166;2023-05-29T02:37:24;7.00;;;3.30;;
6751;SDS011;3413;47.680;9.166;2023-05-29T02:42:27;7.50;;;2.97;;
6751;SDS011;3413;47.680;9.166;2023-05-29T02:47:29;6.30;;;2.57;;
6751;SDS011;3413;47.680;9.166;2023-05-29T02:52:34;12.63;;;3.00;;
6751;SDS011;3413;47.680;9.166;2023-05-29T02:57:38;5.43;;;2.40;;
6751;SDS011;3413;47.680;9.166;2023-05-29T03:02:39;6.37;;;2.90;;
6751;SDS011;3413;47.680;9.166;2023-05-29T03:07:42;6.17;;;2.73;;
6751;SDS011;3413;47.680;9.166;2023-05-29T03:12:44;7.30;;;2.80;;
6751;SDS011;3413;47.680;9.166;2023-05-29T03:17:46;7.13;;;2.63;;
6751;SDS011;3413;47.680;9.166;2023-05-29T03:23:33;6.83;;;2.40;;
6751;SDS011;3413;47.680;9.166;2023-05-29T03:29:00;7.27;;;2.80;;
6751;SDS011;3413;47.680;9.166;2023-05-29T03:34:47;7.40;;;2.90;;
6751;SDS011;3413;47.680;9.166;2023-05-29T03:45:36;8.10;;;3.20;;
6751;SDS011;3413;47.680;9.166;2023-05-29T03:50:43;8.97;;;3.20;;
6751;SDS011;3413;47.680;9.166;2023-05-29T03:56:02;6.03;;;2.80;;
6751;SDS011;3413;47.680;9.166;2023-05-29T04:01:14;9.80;;;3.33;;
6751;SDS011;3413;47.680;9.166;2023-05-29T04:06:21;5.33;;;2.30;;
6751;SDS011;3413;47.680;9.166;2023-05-29T04:11:35;9.50;;;2.37;;
6751;SDS011;3413;47.680;9.166;2023-05-29T04:16:46;6.20;;;2.83;;
6751;SDS011;3413;47.680;9.166;2023-05-29T04:27:02;5.97;;;2.60;;
6751;SDS011;3413;47.680;9.166;2023-05-29T04:32:04;8.83;;;2.93;;
6751;SDS011;3413;47.680;9.166;2023-05-29T04:37:06;6.27;;;2.60;;
6751;SDS011;3413;47.680;9.166;2023-05-29T04:42:09;9.40;;;3.40;;
6751;SDS011;3413;47.680;9.166;2023-05-29T04:47:11;6.90;;;3.20;;
6751;SDS011;3413;47.680;9.166;2023-05-29T04:52:15;10.27;;;3.00;;
6751;SDS011;3413;47.680;9.166;2023-05-29T04:57:17;7.17;;;2.97;;
6751;SDS011;3413;47.680;9.166;2023-05-29T05:02:19;9.80;;;3.30;;
6751;SDS011;3413;47.680;9.166;2023-05-29T05:07:21;8.00;;;2.73;;
6751;SDS011;3413;47.680;9.166;2023-05-29T05:12:23;6.57;;;2.53;;
6751;SDS011;3413;47.680;9.166;2023-05-29T05:17:26;9.00;;;3.20;;
6751;SDS011;3413;47.680;9.166;2023-05-29T05:22:28;10.50;;;2.83;;
6751;SDS011;3413;47.680;9.166;2023-05-29T05:27:30;6.90;;;2.77;;
6751;SDS011;3413;47.680;9.166;2023-05-29T05:32:32;4.43;;;2.43;;
6751;SDS011;3413;47.680;9.166;2023-05-29T05:37:39;6.80;;;2.80;;
6751;SDS011;3413;47.680;9.166;2023-05-29T05:42:42;10.30;;;2.87;;
6751;SDS011;3413;47.680;9.166;2023-05-29T05:47:46;8.60;;;3.20;;
6751;SDS011;3413;47.680;9.166;2023-05-29T05:52:49;7.47;;;3.10;;
6751;SDS011;3413;47.680;9.166;2023-05-29T05:57:52;10.27;;;2.70;;
6751;SDS011;3413;47.680;9.166;2023-05-29T06:02:54;12.30;;;3.60;;
6751;SDS011;3413;47.680;9.166;2023-05-29T06:08:09;5.63;;;2.63;;
6751;SDS011;3413;47.680;9.166;2023-05-29T06:13:11;6.03;;;2.67;;
6751;SDS011;3413;47.680;9.166;2023-05-29T06:18:19;4.47;;;2.30;;
6751;SDS011;3413;47.680;9.166;2023-05-29T06:23:22;5.43;;;2.20;;
6751;SDS011;3413;47.680;9.166;2023-05-29T06:28:24;6.97;;;2.67;;
6751;SDS011;3413;47.680;9.166;2023-05-29T06:33:27;5.40;;;2.00;;
6751;SDS011;3413;47.680;9.166;2023-05-29T06:38:31;5.83;;;2.83;;
6751;SDS011;3413;47.680;9.166;2023-05-29T06:43:33;8.50;;;2.33;;
6751;SDS011;3413;47.680;9.166;2023-05-29T06:48:37;12.83;;;2.80;;
6751;SDS011;3413;47.680;9.166;2023-05-29T06:53:39;9.83;;;2.90;;
6751;SDS011;3413;47.680;9.166;2023-05-29T06:58:43;7.70;;;2.70;;
6751;SDS011;3413;47.680;9.166;2023-05-29T07:03:51;10.00;;;3.20;;
6751;SDS011;3413;47.680;9.166;2023-05-29T07:08:54;7.77;;;2.70;;
6751;SDS011;3413;47.680;9.166;2023-05-29T07:13:57;5.50;;;2.30;;
6751;SDS011;3413;47.680;9.166;2023-05-29T07:19:00;4.17;;;2.20;;
6751;SDS011;3413;47.680;9.166;2023-05-29T07:24:05;8.03;;;2.57;;
6751;SDS011;3413;47.680;9.166;2023-05-29T07:29:09;4.77;;;2.00;;
6751;SDS011;3413;47.680;9.166;2023-05-29T07:34:13;6.17;;;2.70;;
6751;SDS011;3413;47.680;9.166;2023-05-29T07:39:16;7.93;;;2.80;;
6751;SDS011;3413;47.680;9.166;2023-05-29T07:44:18;5.10;;;2.63;;
6751;SDS011;3413;47.680;9.166;2023-05-29T07:49:21;11.33;;;3.20;;
6751;SDS011;3413;47.680;9.166;2023-05-29T07:54:24;9.20;;;2.70;;
6751;SDS011;3413;47.680;9.166;2023-05-29T07:59:26;5.83;;;3.00;;
6751;SDS011;3413;47.680;9.166;2023-05-29T08:04:28;11.13;;;2.50;;
6751;SDS011;3413;47.680;9.166;2023-05-29T08:09:30;10.83;;;3.37;;
6751;SDS011;3413;47.680;9.166;2023-05-29T08:14:32;6.77;;;2.30;;
6751;SDS011;3413;47.680;9.166;2023-05-29T08:19:36;7.93;;;3.23;;
6751;SDS011;3413;47.680;9.166;2023-05-29T08:24:39;8.20;;;2.90;;
6751;SDS011;3413;47.680;9.166;2023-05-29T08:29:40;6.30;;;2.67;;
6751;SDS011;3413;47.680;9.166;2023-05-29T08:34:43;4.87;;;2.50;;
6751;SDS011;3413;47.680;9.166;2023-05-29T08:39:47;4.47;;;2.20;;
6751;SDS011;3413;47.680;9.166;2023-05-29T08:44:49;5.07;;;2.37;;
6751;SDS011;3413;47.680;9.166;2023-05-29T08:49:55;4.20;;;1.90;;
6751;SDS011;3413;47.680;9.166;2023-05-29T08:54:59;4.90;;;2.10;;
6751;SDS011;3413;47.680;9.166;2023-05-29T09:00:02;6.27;;;3.27;;
6751;SDS011;3413;47.680;9.166;2023-05-29T09:05:11;10.10;;;3.47;;
6751;SDS011;3413;47.680;9.166;2023-05-29T09:10:13;6.80;;;2.80;;
6751;SDS011;3413;47.680;9.166;2023-05-29T09:15:20;5.63;;;2.87;;
6751;SDS011;3413;47.680;9.166;2023-05-29T09:20:26;8.03;;;2.77;;
6751;SDS011;3413;47.680;9.166;2023-05-29T09:25:30;5.87;;;2.27;;
6751;SDS011;3413;47.680;9.166;2023-05-29T09:35:38;10.10;;;2.70;;
6751;SDS011;3413;47.680;9.166;2023-05-29T09:40:50;8.40;;;2.93;;
6751;SDS011;3413;47.680;9.166;2023-05-29T09:45:53;5.67;;;2.03;;
6751;SDS011;3413;47.680;9.166;2023-05-29T09:50:56;6.20;;;2.40;;
6751;SDS011;3413;47.680;9.166;2023-05-29T09:56:00;7.57;;;2.73;;
6751;SDS011;3413;47.680;9.166;2023-05-29T10:01:03;6.13;;;2.90;;
6751;SDS011;3413;47.680;9.166;2023-05-29T10:06:06;9.80;;;3.17;;
6751;SDS011;3413;47.680;9.166;2023-05-29T10:11:10;4.67;;;2.07;;
6751;SDS011;3413;47.680;9.166;2023-05-29T10:16:17;6.77;;;3.00;;
6751;SDS011;3413;47.680;9.166;2023-05-29T10:21:26;5.93;;;2.83;;
6751;SDS011;3413;47.680;9.166;2023-05-29T10:26:29;6.00;;;2.50;;
6751;SDS011;3413;47.680;9.166;2023-05-29T10:37:06;11.10;;;2.80;;
6751;SDS011;3413;47.680;9.166;2023-05-29T10:42:47;6.70;;;2.77;;
6751;SDS011;3413;47.680;9.166;2023-05-29T10:47:51;5.97;;;2.40;;
6751;SDS011;3413;47.680;9.166;2023-05-29T10:52:57;6.57;;;2.60;;
6751;SDS011;3413;47.680;9.166;2023-05-29T10:58:04;12.00;;;3.20;;
6751;SDS011;3413;47.680;9.166;2023-05-29T11:03:10;10.50;;;2.30;;
6751;SDS011;3413;47.680;9.166;2023-05-29T11:08:12;6.73;;;2.43;;
6751;SDS011;3413;47.680;9.166;2023-05-29T11:13:24;7.07;;;2.60;;
6751;SDS011;3413;47.680;9.166;2023-05-29T11:18:28;5.93;;;2.63;;
6751;SDS011;3413;47.680;9.166;2023-05-29T11:23:31;6.80;;;2.97;;
6751;SDS011;3413;47.680;9.166;2023-05-29T11:28:34;7.67;;;2.70;;
6751;SDS011;3413;47.680;9.166;2023-05-29T11:33:39;8.00;;;2.53;;
6751;SDS011;3413;47.680;9.166;2023-05-29T11:38:44;6.43;;;2.87;;
6751;SDS011;3413;47.680;9.166;2023-05-29T11:44:00;14.87;;;3.37;;
6751;SDS011;3413;47.680;9.166;2023-05-29T11:49:04;8.00;;;2.70;;
6751;SDS011;3413;47.680;9.166;2023-05-29T11:54:06;8.43;;;2.73;;
6751;SDS011;3413;47.680;9.166;2023-05-29T11:59:10;13.70;;;2.70;;
6751;SDS011;3413;47.680;9.166;2023-05-29T12:04:15;7.30;;;2.87;;
6751;SDS011;3413;47.680;9.166;2023-05-29T12:09:27;6.83;;;2.83;;
6751;SDS011;3413;47.680;9.166;2023-05-29T12:14:30;6.60;;;2.43;;
6751;SDS011;3413;47.680;9.166;2023-05-29T12:19:32;6.40;;;2.47;;
6751;SDS011;3413;47.680;9.166;2023-05-29T12:24:34;7.03;;;2.30;;
6751;SDS011;3413;47.680;9.166;2023-05-29T12:29:44;7.67;;;2.00;;
6751;SDS011;3413;47.680;9.166;2023-05-29T12:34:48;10.60;;;2.30;;
6751;SDS011;3413;47.680;9.166;2023-05-29T12:45:21;8.50;;;2.50;;
6751;SDS011;3413;47.680;9.166;2023-05-29T12:55:34;4.53;;;1.97;;
6751;SDS011;3413;47.680;9.166;2023-05-29T13:00:41;5.33;;;2.33;;
6751;SDS011;3413;47.680;9.166;2023-05-29T13:05:45;4.10;;;1.97;;
6751;SDS011;3413;47.680;9.166;2023-05-29T13:10:47;5.03;;;2.33;;
6751;SDS011;3413;47.680;9.166;2023-05-29T13:15:49;6.03;;;2.70;;
6751;SDS011;3413;47.680;9.166;2023-05-29T13:20:51;4.80;;;2.10;;
6751;SDS011;3413;47.680;9.166;2023-05-29T13:25:53;4.67;;;2.10;;
6751;SDS011;3413;47.680;9.166;2023-05-29T13:30:55;5.60;;;2.03;;
6751;SDS011;3413;47.680;9.166;2023-05-29T13:35:57;4.90;;;1.97;;
6751;SDS011;3413;47.680;9.166;2023-05-29T13:41:00;4.70;;;2.17;;
6751;SDS011;3413;47.680;9.166;2023-05-29T13:46:02;3.93;;;1.90;;
6751;SDS011;3413;47.680;9.166;2023-05-29T13:51:04;3.90;;;1.73;;
6751;SDS011;3413;47.680;9.166;2023-05-29T13:56:07;4.40;;;2.00;;
6751;SDS011;3413;47.680;9.166;2023-05-29T14:01:10;4.90;;;2.40;;
6751;SDS011;3413;47.680;9.166;2023-05-29T14:06:12;4.80;;;1.77;;
6751;SDS011;3413;47.680;9.166;2023-05-29T14:11:14;5.17;;;1.90;;
6751;SDS011;3413;47.680;9.166;2023-05-29T14:16:16;4.70;;;1.67;;
6751;SDS011;3413;47.680;9.166;2023-05-29T14:21:19;7.40;;;1.80;;
6751;SDS011;3413;47.680;9.166;2023-05-29T14:26:22;6.83;;;2.27;;
6751;SDS011;3413;47.680;9.166;2023-05-29T14:31:24;6.67;;;1.73;;
6751;SDS011;3413;47.680;9.166;2023-05-29T14:36:26;3.70;;;1.90;;
6751;SDS011;3413;47.680;9.166;2023-05-29T14:41:29;6.10;;;2.00;;
6751;SDS011;3413;47.680;9.166;2023-05-29T14:46:31;6.03;;;2.00;;
6751;SDS011;3413;47.680;9.166;2023-05-29T14:51:33;5.60;;;1.57;;
6751;SDS011;3413;47.680;9.166;2023-05-29T14:56:38;4.40;;;1.80;;
6751;SDS011;3413;47.680;9.166;2023-05-29T15:01:40;3.63;;;2.00;;
6751;SDS011;3413;47.680;9.166;2023-05-29T15:06:42;6.83;;;1.90;;
6751;SDS011;3413;47.680;9.166;2023-05-29T15:11:49;4.43;;;2.07;;
6751;SDS011;3413;47.680;9.166;2023-05-29T15:16:51;8.33;;;1.80;;
6751;SDS011;3413;47.680;9.166;2023-05-29T15:21:53;4.87;;;1.90;;
6751;SDS011;3413;47.680;9.166;2023-05-29T15:26:56;5.30;;;1.60;;
6751;SDS011;3413;47.680;9.166;2023-05-29T15:32:00;3.23;;;1.80;;
6751;SDS011;3413;47.680;9.166;2023-05-29T15:37:03;3.20;;;1.60;;
6751;SDS011;3413;47.680;9.166;2023-05-29T15:42:05;4.50;;;1.80;;
6751;SDS011;3413;47.680;9.166;2023-05-29T15:47:11;3.30;;;1.60;;
6751;SDS011;3413;47.680;9.166;2023-05-29T15:52:13;4.03;;;1.60;;
6751;SDS011;3413;47.680;9.166;2023-05-29T15:57:16;3.80;;;1.67;;
6751;SDS011;3413;47.680;9.166;2023-05-29T16:02:18;4.37;;;1.70;;
6751;SDS011;3413;47.680;9.166;2023-05-29T16:07:20;19.93;;;1.90;;
6751;SDS011;3413;47.680;9.166;2023-05-29T16:12:22;7.47;;;2.10;;
6751;SDS011;3413;47.680;9.166;2023-05-29T16:17:25;5.87;;;1.83;;
6751;SDS011;3413;47.680;9.166;2023-05-29T16:22:27;3.40;;;1.73;;
6751;SDS011;3413;47.680;9.166;2023-05-29T16:27:42;4.53;;;1.87;;
6751;SDS011;3413;47.680;9.166;2023-05-29T16:32:45;4.00;;;1.70;;
6751;SDS011;3413;47.680;9.166;2023-05-29T16:37:47;4.73;;;1.80;;
6751;SDS011;3413;47.680;9.166;2023-05-29T16:48:18;5.07;;;1.90;;
6751;SDS011;3413;47.680;9.166;2023-05-29T16:53:21;5.60;;;1.50;;
6751;SDS011;3413;47.680;9.166;2023-05-29T16:58:23;7.43;;;1.90;;
6751;SDS011;3413;47.680;9.166;2023-05-29T17:03:25;11.13;;;1.93;;
6751;SDS011;3413;47.680;9.166;2023-05-29T17:08:28;5.20;;;1.90;;
6751;SDS011;3413;47.680;9.166;2023-05-29T17:13:30;6.57;;;1.80;;
6751;SDS011;3413;47.680;9.166;2023-05-29T17:18:32;3.07;;;1.60;;
6751;SDS011;3413;47.680;9.166;2023-05-29T17:23:34;8.63;;;2.00;;
6751;SDS011;3413;47.680;9.166;2023-05-29T17:28:37;6.73;;;2.00;;
6751;SDS011;3413;47.680;9.166;2023-05-29T17:33:39;6.10;;;1.70;;
6751;SDS011;3413;47.680;9.166;2023-05-29T17:38:41;7.70;;;2.10;;
6751;SDS011;3413;47.680;9.166;2023-05-29T17:43:43;3.10;;;1.37;;
6751;SDS011;3413;47.680;9.166;2023-05-29T17:48:46;3.83;;;1.43;;
6751;SDS011;3413;47.680;9.166;2023-05-29T17:53:48;5.87;;;1.60;;
6751;SDS011;3413;47.680;9.166;2023-05-29T17:58:51;4.37;;;1.83;;
6751;SDS011;3413;47.680;9.166;2023-05-29T18:03:53;5.93;;;1.87;;
6751;SDS011;3413;47.680;9.166;2023-05-29T18:08:55;8.63;;;1.97;;
6751;SDS011;3413;47.680;9.166;2023-05-29T18:13:57;4.13;;;1.53;;
6751;SDS011;3413;47.680;9.166;2023-05-29T18:18:59;5.00;;;1.57;;
6751;SDS011;3413;47.680;9.166;2023-05-29T18:24:01;3.63;;;1.67;;
6751;SDS011;3413;47.680;9.166;2023-05-29T18:29:04;4.20;;;1.60;;
6751;SDS011;3413;47.680;9.166;2023-05-29T18:34:06;4.17;;;1.50;;
6751;SDS011;3413;47.680;9.166;2023-05-29T18:39:08;4.27;;;1.63;;
6751;SDS011;3413;47.680;9.166;2023-05-29T18:44:10;4.87;;;1.77;;
6751;SDS011;3413;47.680;9.166;2023-05-29T18:49:12;3.50;;;1.93;;
6751;SDS011;3413;47.680;9.166;2023-05-29T18:54:14;7.80;;;1.70;;
6751;SDS011;3413;47.680;9.166;2023-05-29T18:59:18;7.87;;;1.63;;
6751;SDS011;3413;47.680;9.166;2023-05-29T19:04:20;8.00;;;1.90;;
6751;SDS011;3413;47.680;9.166;2023-05-29T19:09:22;4.47;;;2.13;;
6751;SDS011;3413;47.680;9.166;2023-05-29T19:14:24;4.53;;;1.80;;
6751;SDS011;3413;47.680;9.166;2023-05-29T19:19:26;4.03;;;1.93;;
6751;SDS011;3413;47.680;9.166;2023-05-29T19:24:28;6.30;;;1.90;;
6751;SDS011;3413;47.680;9.166;2023-05-29T19:29:30;4.00;;;1.80;;
6751;SDS011;3413;47.680;9.166;2023-05-29T19:34:32;4.43;;;1.90;;
6751;SDS011;3413;47.680;9.166;2023-05-29T19:39:34;3.20;;;1.30;;
6751;SDS011;3413;47.680;9.166;2023-05-29T19:44:36;6.73;;;2.37;;
6751;SDS011;3413;47.680;9.166;2023-05-29T19:49:38;7.03;;;1.70;;
6751;SDS011;3413;47.680;9.166;2023-05-29T19:54:40;6.07;;;2.03;;
6751;SDS011;3413;47.680;9.166;2023-05-29T19:59:42;8.70;;;2.17;;
6751;SDS011;3413;47.680;9.166;2023-05-29T20:04:49;4.83;;;2.17;;
6751;SDS011;3413;47.680;9.166;2023-05-29T20:09:51;3.43;;;1.53;;
6751;SDS011;3413;47.680;9.166;2023-05-29T20:14:54;3.40;;;1.63;;
6751;SDS011;3413;47.680;9.166;2023-05-29T20:19:56;4.77;;;1.40;;
6751;SDS011;3413;47.680;9.166;2023-05-29T20:24:59;9.90;;;2.13;;
6751;SDS011;3413;47.680;9.166;2023-05-29T20:30:01;3.13;;;1.50;;
6751;SDS011;3413;47.680;9.166;2023-05-29T20:35:07;4.23;;;2.30;;
6751;SDS011;3413;47.680;9.166;2023-05-29T20:40:10;5.07;;;2.00;;
6751;SDS011;3413;47.680;9.166;2023-05-29T20:45:13;4.43;;;2.17;;
6751;SDS011;3413;47.680;9.166;2023-05-29T20:50:16;5.83;;;1.50;;
6751;SDS011;3413;47.680;9.166;2023-05-29T20:55:17;3.53;;;1.50;;
6751;SDS011;3413;47.680;9.166;2023-05-29T21:00:20;8.70;;;2.07;;
6751;SDS011;3413;47.680;9.166;2023-05-29T21:05:22;3.67;;;1.53;;
6751;SDS011;3413;47.680;9.166;2023-05-29T21:10:25;3.50;;;1.77;;
6751;SDS011;3413;47.680;9.166;2023-05-29T21:15:27;12.40;;;1.87;;
6751;SDS011;3413;47.680;9.166;2023-05-29T21:20:29;2.50;;;1.50;;
6751;SDS011;3413;47.680;9.166;2023-05-29T21:25:31;4.17;;;1.63;;
6751;SDS011;3413;47.680;9.166;2023-05-29T21:30:33;7.00;;;1.50;;
6751;SDS011;3413;47.680;9.166;2023-05-29T21:35:35;4.50;;;2.00;;
6751;SDS011;3413;47.680;9.166;2023-05-29T21:40:38;3.00;;;1.40;;
6751;SDS011;3413;47.680;9.166;2023-05-29T21:45:40;4.87;;;1.77;;
6751;SDS011;3413;47.680;9.166;2023-05-29T21:50:43;5.93;;;1.40;;
6751;SDS011;3413;47.680;9.166;2023-05-29T21:55:47;2.93;;;1.60;;
6751;SDS011;3413;47.680;9.166;2023-05-29T22:00:49;2.73;;;1.63;;
6751;SDS011;3413;47.680;9.166;2023-05-29T22:05:51;4.40;;;1.73;;
6751;SDS011;3413;47.680;9.166;2023-05-29T22:10:53;5.17;;;1.83;;
6751;SDS011;3413;47.680;9.166;2023-05-29T22:15:55;4.67;;;1.80;;
6751;SDS011;3413;47.680;9.166;2023-05-29T22:20:57;5.60;;;1.60;;
6751;SDS011;3413;47.680;9.166;2023-05-29T22:26:04;4.10;;;1.80;;
6751;SDS011;3413;47.680;9.166;2023-05-29T22:31:06;8.00;;;2.00;;
6751;SDS011;3413;47.680;9.166;2023-05-29T22:36:08;7.60;;;1.87;;
6751;SDS011;3413;47.680;9.166;2023-05-29T22:41:10;6.40;;;1.83;;
6751;SDS011;3413;47.680;9.166;2023-05-29T22:46:13;6.23;;;2.00;;
6751;SDS011;3413;47.680;9.166;2023-05-29T22:51:41;4.10;;;2.23;;
6751;SDS011;3413;47.680;9.166;2023-05-29T22:56:45;3.80;;;1.70;;
6751;SDS011;3413;47.680;9.166;2023-05-29T23:01:48;2.97;;;1.70;;
6751;SDS011;3413;47.680;9.166;2023-05-29T23:06:52;3.33;;;1.87;;
6751;SDS011;3413;47.680;9.166;2023-05-29T23:11:54;3.83;;;1.97;;
6751;SDS011;3413;47.680;9.166;2023-05-29T23:16:56;4.30;;;1.93;;
6751;SDS011;3413;47.680;9.166;2023-05-29T23:21:58;4.50;;;2.20;;
6751;SDS011;3413;47.680;9.166;2023-05-29T23:27:00;3.47;;;1.83;;
6751;SDS011;3413;47.680;9.166;2023-05-29T23:32:03;4.13;;;2.10;;
6751;SDS011;3413;47.680;9.166;2023-05-29T23:37:06;4.57;;;2.07;;
6751;SDS011;3413;47.680;9.166;2023-05-29T23:42:08;2.73;;;1.80;;
6751;SDS011;3413;47.680;9.166;2023-05-29T23:47:13;5.67;;;2.00;;
6751;SDS011;3413;47.680;9.166;2023-05-29T23:52:15;3.47;;;1.77;;
6751;SDS011;3413;47.680;9.166;2023-05-29T23:57:17;4.30;;;2.20;;
